Terminal Aerodrome Forecast
Issued by NWS Denver/Boulder, CO

Home | Current Version | Previous Version | Text Only | Print | Product List | Glossary On
Versions: 1 2 3 4 5 6 7 8 9 10 11 12 13 14 15 16 17 18 19 20 21 22 23 24 25 26 27 28 29 30 31 32 33 34 35 36 37 38 39 40 41 42 43 44 45 46 47 48 49 50
000
FTUS45 KBOU 251841 AAB
TAFDEN
TAF AMD
KDEN 251841Z 2519/2624 04012G22KT P6SM FEW025 SCT050 OVC100
      TEMPO 2519/2521 SCT025 BKN040
     FM252100 06013G25KT 6SM -SN SCT012 OVC020
      TEMPO 2523/2601 3SM -SN BR BKN007 OVC014
     FM260100 01015G28KT 1SM -SN BR BKN007 OVC014
      TEMPO 2601/2605 1/2SM SN VV003
     FM260500 36010G18KT 3SM -SN BR BKN007 OVC014
      TEMPO 2605/2609 1SM -SN BR OVC005
     FM261200 36010KT 4SM -SN BR BKN007 OVC014
     FM261700 04010KT 2SM -SN BR BKN005 OVC010=

USA.gov is the U.S. government's official web portal to all federal, state and local government web resources and services.